sensor_id;sensor_type;location;lat;lon;timestamp;P1;durP1;ratioP1;P2;durP2;ratioP2
69005;SDS011;56061;51.748;19.620;2022-12-18T00:01:22;32.20;;;11.30;;
69005;SDS011;56061;51.748;19.620;2022-12-18T00:03:54;33.20;;;11.80;;
69005;SDS011;56061;51.748;19.620;2022-12-18T00:06:22;35.10;;;12.70;;
69005;SDS011;56061;51.748;19.620;2022-12-18T00:08:50;41.70;;;12.90;;
69005;SDS011;56061;51.748;19.620;2022-12-18T00:11:19;44.90;;;17.00;;
69005;SDS011;56061;51.748;19.620;2022-12-18T00:13:47;33.50;;;11.70;;
69005;SDS011;56061;51.748;19.620;2022-12-18T00:16:18;26.10;;;8.80;;
69005;SDS011;56061;51.748;19.620;2022-12-18T00:18:47;36.80;;;11.20;;
69005;SDS011;56061;51.748;19.620;2022-12-18T00:21:15;39.00;;;12.30;;
69005;SDS011;56061;51.748;19.620;2022-12-18T00:23:43;31.90;;;7.40;;
69005;SDS011;56061;51.748;19.620;2022-12-18T00:26:15;47.00;;;14.50;;
69005;SDS011;56061;51.748;19.620;2022-12-18T00:28:44;38.70;;;13.50;;
69005;SDS011;56061;51.748;19.620;2022-12-18T00:31:17;29.10;;;10.80;;
69005;SDS011;56061;51.748;19.620;2022-12-18T00:33:46;38.40;;;13.10;;
69005;SDS011;56061;51.748;19.620;2022-12-18T00:36:20;46.00;;;15.30;;
69005;SDS011;56061;51.748;19.620;2022-12-18T00:38:49;35.90;;;14.30;;
69005;SDS011;56061;51.748;19.620;2022-12-18T00:41:17;38.90;;;13.10;;
69005;SDS011;56061;51.748;19.620;2022-12-18T00:44:06;44.70;;;14.70;;
69005;SDS011;56061;51.748;19.620;2022-12-18T00:46:33;39.40;;;13.10;;
69005;SDS011;56061;51.748;19.620;2022-12-18T00:49:00;41.80;;;13.50;;
69005;SDS011;56061;51.748;19.620;2022-12-18T00:51:26;37.20;;;13.70;;
69005;SDS011;56061;51.748;19.620;2022-12-18T00:53:53;35.30;;;13.60;;
69005;SDS011;56061;51.748;19.620;2022-12-18T00:56:20;35.00;;;13.10;;
69005;SDS011;56061;51.748;19.620;2022-12-18T00:58:46;40.20;;;14.10;;
69005;SDS011;56061;51.748;19.620;2022-12-18T01:01:12;36.90;;;12.20;;
69005;SDS011;56061;51.748;19.620;2022-12-18T01:03:40;42.70;;;13.20;;
69005;SDS011;56061;51.748;19.620;2022-12-18T01:06:09;32.70;;;12.20;;
69005;SDS011;56061;51.748;19.620;2022-12-18T01:08:38;36.70;;;11.30;;
69005;SDS011;56061;51.748;19.620;2022-12-18T01:11:10;36.10;;;13.00;;
69005;SDS011;56061;51.748;19.620;2022-12-18T01:13:39;36.10;;;12.20;;
69005;SDS011;56061;51.748;19.620;2022-12-18T01:16:06;42.00;;;13.70;;
69005;SDS011;56061;51.748;19.620;2022-12-18T01:18:33;43.60;;;16.00;;
69005;SDS011;56061;51.748;19.620;2022-12-18T01:21:05;41.10;;;13.30;;
69005;SDS011;56061;51.748;19.620;2022-12-18T01:23:36;38.90;;;13.10;;
69005;SDS011;56061;51.748;19.620;2022-12-18T01:26:07;27.80;;;12.10;;
69005;SDS011;56061;51.748;19.620;2022-12-18T01:28:37;32.30;;;12.40;;
69005;SDS011;56061;51.748;19.620;2022-12-18T01:31:24;35.90;;;11.20;;
69005;SDS011;56061;51.748;19.620;2022-12-18T01:33:55;33.70;;;10.90;;
69005;SDS011;56061;51.748;19.620;2022-12-18T01:36:25;32.60;;;11.10;;
69005;SDS011;56061;51.748;19.620;2022-12-18T01:38:53;34.30;;;11.90;;
69005;SDS011;56061;51.748;19.620;2022-12-18T01:41:23;34.80;;;10.90;;
69005;SDS011;56061;51.748;19.620;2022-12-18T01:43:54;43.70;;;11.70;;
69005;SDS011;56061;51.748;19.620;2022-12-18T01:46:27;40.90;;;14.20;;
69005;SDS011;56061;51.748;19.620;2022-12-18T01:48:56;40.60;;;13.70;;
69005;SDS011;56061;51.748;19.620;2022-12-18T01:51:27;26.50;;;10.30;;
69005;SDS011;56061;51.748;19.620;2022-12-18T01:53:55;34.40;;;11.20;;
69005;SDS011;56061;51.748;19.620;2022-12-18T01:56:21;28.70;;;9.70;;
69005;SDS011;56061;51.748;19.620;2022-12-18T01:59:02;31.30;;;9.80;;
69005;SDS011;56061;51.748;19.620;2022-12-18T02:01:32;30.10;;;10.30;;
69005;SDS011;56061;51.748;19.620;2022-12-18T02:04:22;27.40;;;9.10;;
69005;SDS011;56061;51.748;19.620;2022-12-18T02:07:14;27.90;;;10.90;;
69005;SDS011;56061;51.748;19.620;2022-12-18T02:09:59;41.80;;;13.00;;
69005;SDS011;56061;51.748;19.620;2022-12-18T02:12:38;43.80;;;14.20;;
69005;SDS011;56061;51.748;19.620;2022-12-18T02:18:11;45.30;;;14.40;;
69005;SDS011;56061;51.748;19.620;2022-12-18T02:24:28;30.90;;;10.20;;
69005;SDS011;56061;51.748;19.620;2022-12-18T02:27:08;34.10;;;11.60;;
69005;SDS011;56061;51.748;19.620;2022-12-18T02:29:54;29.60;;;10.30;;
69005;SDS011;56061;51.748;19.620;2022-12-18T02:32:28;35.90;;;11.40;;
69005;SDS011;56061;51.748;19.620;2022-12-18T02:34:59;32.60;;;10.90;;
69005;SDS011;56061;51.748;19.620;2022-12-18T02:37:29;45.80;;;13.60;;
69005;SDS011;56061;51.748;19.620;2022-12-18T02:39:58;40.70;;;13.80;;
69005;SDS011;56061;51.748;19.620;2022-12-18T02:42:27;40.40;;;14.70;;
69005;SDS011;56061;51.748;19.620;2022-12-18T02:44:54;32.40;;;11.80;;
69005;SDS011;56061;51.748;19.620;2022-12-18T02:47:23;34.40;;;10.90;;
69005;SDS011;56061;51.748;19.620;2022-12-18T02:52:42;38.30;;;13.00;;
69005;SDS011;56061;51.748;19.620;2022-12-18T02:55:41;25.60;;;9.00;;
69005;SDS011;56061;51.748;19.620;2022-12-18T02:58:26;29.40;;;9.90;;
69005;SDS011;56061;51.748;19.620;2022-12-18T03:04:24;40.90;;;12.80;;
69005;SDS011;56061;51.748;19.620;2022-12-18T03:06:56;38.10;;;13.50;;
69005;SDS011;56061;51.748;19.620;2022-12-18T03:09:34;47.50;;;15.80;;
69005;SDS011;56061;51.748;19.620;2022-12-18T03:12:12;44.00;;;16.30;;
69005;SDS011;56061;51.748;19.620;2022-12-18T03:15:04;34.90;;;12.80;;
69005;SDS011;56061;51.748;19.620;2022-12-18T03:17:52;40.20;;;13.50;;
69005;SDS011;56061;51.748;19.620;2022-12-18T03:20:25;34.80;;;12.60;;
69005;SDS011;56061;51.748;19.620;2022-12-18T03:22:59;38.90;;;12.10;;
69005;SDS011;56061;51.748;19.620;2022-12-18T03:25:34;32.20;;;10.30;;
69005;SDS011;56061;51.748;19.620;2022-12-18T03:28:12;28.50;;;11.00;;
69005;SDS011;56061;51.748;19.620;2022-12-18T03:30:43;39.60;;;13.20;;
69005;SDS011;56061;51.748;19.620;2022-12-18T03:33:17;35.00;;;12.70;;
69005;SDS011;56061;51.748;19.620;2022-12-18T03:35:50;49.60;;;16.60;;
69005;SDS011;56061;51.748;19.620;2022-12-18T03:38:16;47.80;;;14.70;;
69005;SDS011;56061;51.748;19.620;2022-12-18T03:41:04;42.20;;;14.00;;
69005;SDS011;56061;51.748;19.620;2022-12-18T03:46:52;32.00;;;11.50;;
69005;SDS011;56061;51.748;19.620;2022-12-18T03:49:31;29.30;;;10.80;;
69005;SDS011;56061;51.748;19.620;2022-12-18T03:52:14;37.40;;;11.60;;
69005;SDS011;56061;51.748;19.620;2022-12-18T03:54:47;38.10;;;13.10;;
69005;SDS011;56061;51.748;19.620;2022-12-18T03:57:18;36.30;;;12.30;;
69005;SDS011;56061;51.748;19.620;2022-12-18T03:59:55;31.10;;;10.80;;
69005;SDS011;56061;51.748;19.620;2022-12-18T04:02:25;29.20;;;9.10;;
69005;SDS011;56061;51.748;19.620;2022-12-18T04:04:56;28.80;;;9.60;;
69005;SDS011;56061;51.748;19.620;2022-12-18T04:07:25;27.20;;;9.90;;
69005;SDS011;56061;51.748;19.620;2022-12-18T04:09:56;42.20;;;15.70;;
69005;SDS011;56061;51.748;19.620;2022-12-18T04:12:29;51.40;;;16.60;;
69005;SDS011;56061;51.748;19.620;2022-12-18T04:14:56;54.60;;;16.50;;
69005;SDS011;56061;51.748;19.620;2022-12-18T04:17:22;32.50;;;12.00;;
69005;SDS011;56061;51.748;19.620;2022-12-18T04:19:50;34.30;;;13.10;;
69005;SDS011;56061;51.748;19.620;2022-12-18T04:22:16;32.30;;;12.80;;
69005;SDS011;56061;51.748;19.620;2022-12-18T04:24:45;32.60;;;10.90;;
69005;SDS011;56061;51.748;19.620;2022-12-18T04:27:12;36.10;;;12.70;;
69005;SDS011;56061;51.748;19.620;2022-12-18T04:29:39;35.70;;;14.00;;
69005;SDS011;56061;51.748;19.620;2022-12-18T04:32:05;34.20;;;11.50;;
69005;SDS011;56061;51.748;19.620;2022-12-18T04:34:32;35.50;;;12.20;;
69005;SDS011;56061;51.748;19.620;2022-12-18T04:36:58;29.60;;;10.30;;
69005;SDS011;56061;51.748;19.620;2022-12-18T04:39:24;29.60;;;10.40;;
69005;SDS011;56061;51.748;19.620;2022-12-18T04:41:51;31.60;;;10.80;;
69005;SDS011;56061;51.748;19.620;2022-12-18T04:44:18;33.30;;;11.30;;
69005;SDS011;56061;51.748;19.620;2022-12-18T04:46:44;24.30;;;8.90;;
69005;SDS011;56061;51.748;19.620;2022-12-18T04:49:11;51.50;;;15.00;;
69005;SDS011;56061;51.748;19.620;2022-12-18T04:51:38;45.10;;;14.70;;
69005;SDS011;56061;51.748;19.620;2022-12-18T04:54:07;40.60;;;15.80;;
69005;SDS011;56061;51.748;19.620;2022-12-18T04:56:34;39.80;;;14.50;;
69005;SDS011;56061;51.748;19.620;2022-12-18T04:59:00;34.60;;;12.20;;
69005;SDS011;56061;51.748;19.620;2022-12-18T05:01:27;35.40;;;12.80;;
69005;SDS011;56061;51.748;19.620;2022-12-18T05:04:01;33.10;;;12.10;;
69005;SDS011;56061;51.748;19.620;2022-12-18T05:06:28;31.00;;;12.30;;
69005;SDS011;56061;51.748;19.620;2022-12-18T05:08:57;36.00;;;14.00;;
69005;SDS011;56061;51.748;19.620;2022-12-18T05:11:24;42.90;;;13.30;;
69005;SDS011;56061;51.748;19.620;2022-12-18T05:13:50;31.00;;;11.60;;
69005;SDS011;56061;51.748;19.620;2022-12-18T05:16:17;37.60;;;12.90;;
69005;SDS011;56061;51.748;19.620;2022-12-18T05:18:43;45.50;;;14.60;;
69005;SDS011;56061;51.748;19.620;2022-12-18T05:21:10;49.20;;;17.70;;
69005;SDS011;56061;51.748;19.620;2022-12-18T05:23:37;53.20;;;17.30;;
69005;SDS011;56061;51.748;19.620;2022-12-18T05:26:05;46.60;;;15.60;;
69005;SDS011;56061;51.748;19.620;2022-12-18T05:28:34;44.90;;;17.00;;
69005;SDS011;56061;51.748;19.620;2022-12-18T05:31:03;35.30;;;13.90;;
69005;SDS011;56061;51.748;19.620;2022-12-18T05:33:32;36.90;;;12.80;;
69005;SDS011;56061;51.748;19.620;2022-12-18T05:36:01;41.10;;;14.30;;
69005;SDS011;56061;51.748;19.620;2022-12-18T05:38:31;36.80;;;13.60;;
69005;SDS011;56061;51.748;19.620;2022-12-18T05:40:58;39.00;;;13.40;;
69005;SDS011;56061;51.748;19.620;2022-12-18T05:43:26;38.20;;;12.50;;
69005;SDS011;56061;51.748;19.620;2022-12-18T05:45:54;33.90;;;11.40;;
69005;SDS011;56061;51.748;19.620;2022-12-18T05:48:21;39.30;;;11.40;;
69005;SDS011;56061;51.748;19.620;2022-12-18T05:50:49;39.40;;;13.30;;
69005;SDS011;56061;51.748;19.620;2022-12-18T05:53:18;32.20;;;10.30;;
69005;SDS011;56061;51.748;19.620;2022-12-18T05:55:46;57.10;;;18.20;;
69005;SDS011;56061;51.748;19.620;2022-12-18T05:58:14;73.60;;;24.80;;
69005;SDS011;56061;51.748;19.620;2022-12-18T06:00:43;65.80;;;20.60;;
69005;SDS011;56061;51.748;19.620;2022-12-18T06:03:12;55.10;;;19.10;;
69005;SDS011;56061;51.748;19.620;2022-12-18T06:05:42;50.40;;;18.00;;
69005;SDS011;56061;51.748;19.620;2022-12-18T06:08:10;37.70;;;14.40;;
69005;SDS011;56061;51.748;19.620;2022-12-18T06:10:39;50.00;;;15.80;;
69005;SDS011;56061;51.748;19.620;2022-12-18T06:13:07;64.70;;;20.70;;
69005;SDS011;56061;51.748;19.620;2022-12-18T06:15:36;44.80;;;16.40;;
69005;SDS011;56061;51.748;19.620;2022-12-18T06:18:03;47.80;;;15.50;;
69005;SDS011;56061;51.748;19.620;2022-12-18T06:20:30;47.60;;;16.40;;
69005;SDS011;56061;51.748;19.620;2022-12-18T06:22:59;43.90;;;14.40;;
69005;SDS011;56061;51.748;19.620;2022-12-18T06:25:26;45.40;;;16.10;;
69005;SDS011;56061;51.748;19.620;2022-12-18T06:27:52;48.00;;;15.60;;
69005;SDS011;56061;51.748;19.620;2022-12-18T06:30:19;47.10;;;17.80;;
69005;SDS011;56061;51.748;19.620;2022-12-18T06:32:48;69.10;;;24.20;;
69005;SDS011;56061;51.748;19.620;2022-12-18T06:35:21;50.90;;;18.80;;
69005;SDS011;56061;51.748;19.620;2022-12-18T06:37:48;57.50;;;19.00;;
69005;SDS011;56061;51.748;19.620;2022-12-18T06:40:15;84.80;;;28.60;;
69005;SDS011;56061;51.748;19.620;2022-12-18T06:42:42;58.60;;;22.80;;
69005;SDS011;56061;51.748;19.620;2022-12-18T06:45:09;52.20;;;18.20;;
69005;SDS011;56061;51.748;19.620;2022-12-18T06:47:37;46.90;;;17.10;;
69005;SDS011;56061;51.748;19.620;2022-12-18T06:50:04;49.40;;;18.20;;
69005;SDS011;56061;51.748;19.620;2022-12-18T06:52:32;44.40;;;17.00;;
69005;SDS011;56061;51.748;19.620;2022-12-18T06:54:59;52.50;;;19.10;;
69005;SDS011;56061;51.748;19.620;2022-12-18T06:57:26;48.00;;;17.70;;
69005;SDS011;56061;51.748;19.620;2022-12-18T06:59:54;39.70;;;13.70;;
69005;SDS011;56061;51.748;19.620;2022-12-18T07:02:20;42.20;;;14.60;;
69005;SDS011;56061;51.748;19.620;2022-12-18T07:04:47;41.70;;;14.30;;
69005;SDS011;56061;51.748;19.620;2022-12-18T07:07:13;42.20;;;14.60;;
69005;SDS011;56061;51.748;19.620;2022-12-18T07:09:40;45.50;;;15.60;;
69005;SDS011;56061;51.748;19.620;2022-12-18T07:12:06;66.00;;;19.80;;
69005;SDS011;56061;51.748;19.620;2022-12-18T07:14:34;69.50;;;22.00;;
69005;SDS011;56061;51.748;19.620;2022-12-18T07:17:00;58.00;;;19.70;;
69005;SDS011;56061;51.748;19.620;2022-12-18T07:19:27;47.60;;;16.50;;
69005;SDS011;56061;51.748;19.620;2022-12-18T07:21:54;46.90;;;16.00;;
69005;SDS011;56061;51.748;19.620;2022-12-18T07:24:20;45.90;;;16.30;;
69005;SDS011;56061;51.748;19.620;2022-12-18T07:26:47;53.90;;;19.60;;
69005;SDS011;56061;51.748;19.620;2022-12-18T07:29:14;52.50;;;19.70;;
69005;SDS011;56061;51.748;19.620;2022-12-18T07:31:40;48.10;;;16.10;;
69005;SDS011;56061;51.748;19.620;2022-12-18T07:34:13;39.10;;;14.00;;
69005;SDS011;56061;51.748;19.620;2022-12-18T07:36:41;45.10;;;16.30;;
69005;SDS011;56061;51.748;19.620;2022-12-18T07:39:08;69.30;;;27.90;;
69005;SDS011;56061;51.748;19.620;2022-12-18T07:41:36;57.60;;;21.10;;
69005;SDS011;56061;51.748;19.620;2022-12-18T07:44:10;48.10;;;16.90;;
69005;SDS011;56061;51.748;19.620;2022-12-18T07:46:37;64.80;;;21.10;;
69005;SDS011;56061;51.748;19.620;2022-12-18T07:49:04;84.50;;;31.10;;
69005;SDS011;56061;51.748;19.620;2022-12-18T07:51:30;87.20;;;33.10;;
69005;SDS011;56061;51.748;19.620;2022-12-18T07:53:57;65.20;;;25.10;;
69005;SDS011;56061;51.748;19.620;2022-12-18T07:56:23;47.30;;;18.10;;
69005;SDS011;56061;51.748;19.620;2022-12-18T07:58:55;45.20;;;15.90;;
69005;SDS011;56061;51.748;19.620;2022-12-18T08:01:22;47.70;;;15.90;;
69005;SDS011;56061;51.748;19.620;2022-12-18T08:03:50;84.00;;;31.30;;
69005;SDS011;56061;51.748;19.620;2022-12-18T08:06:18;49.40;;;17.70;;
69005;SDS011;56061;51.748;19.620;2022-12-18T08:08:54;53.70;;;18.70;;
69005;SDS011;56061;51.748;19.620;2022-12-18T08:11:23;50.00;;;15.40;;
69005;SDS011;56061;51.748;19.620;2022-12-18T08:13:51;81.10;;;29.90;;
69005;SDS011;56061;51.748;19.620;2022-12-18T08:16:19;94.40;;;30.30;;
69005;SDS011;56061;51.748;19.620;2022-12-18T08:18:46;110.10;;;35.10;;
69005;SDS011;56061;51.748;19.620;2022-12-18T08:21:25;69.10;;;27.40;;
69005;SDS011;56061;51.748;19.620;2022-12-18T08:23:56;54.50;;;20.70;;
69005;SDS011;56061;51.748;19.620;2022-12-18T08:26:27;87.10;;;31.50;;
69005;SDS011;56061;51.748;19.620;2022-12-18T08:28:56;103.60;;;38.40;;
69005;SDS011;56061;51.748;19.620;2022-12-18T08:31:26;68.00;;;27.40;;
69005;SDS011;56061;51.748;19.620;2022-12-18T08:33:54;54.70;;;21.20;;
69005;SDS011;56061;51.748;19.620;2022-12-18T08:36:22;69.40;;;24.70;;
69005;SDS011;56061;51.748;19.620;2022-12-18T08:38:50;67.80;;;24.10;;
69005;SDS011;56061;51.748;19.620;2022-12-18T08:41:17;66.30;;;26.00;;
69005;SDS011;56061;51.748;19.620;2022-12-18T08:43:44;108.50;;;39.40;;
69005;SDS011;56061;51.748;19.620;2022-12-18T08:46:38;91.70;;;34.10;;
69005;SDS011;56061;51.748;19.620;2022-12-18T08:49:08;68.40;;;23.20;;
69005;SDS011;56061;51.748;19.620;2022-12-18T08:51:36;59.10;;;22.70;;
69005;SDS011;56061;51.748;19.620;2022-12-18T08:54:04;50.20;;;18.20;;
69005;SDS011;56061;51.748;19.620;2022-12-18T08:56:31;63.10;;;22.80;;
69005;SDS011;56061;51.748;19.620;2022-12-18T08:58:59;60.70;;;21.00;;
69005;SDS011;56061;51.748;19.620;2022-12-18T09:01:26;60.70;;;19.30;;
69005;SDS011;56061;51.748;19.620;2022-12-18T09:03:53;59.90;;;19.80;;
69005;SDS011;56061;51.748;19.620;2022-12-18T09:06:21;64.10;;;22.80;;
69005;SDS011;56061;51.748;19.620;2022-12-18T09:08:48;61.80;;;23.00;;
69005;SDS011;56061;51.748;19.620;2022-12-18T09:11:21;56.70;;;21.50;;
69005;SDS011;56061;51.748;19.620;2022-12-18T09:13:50;58.40;;;22.20;;
69005;SDS011;56061;51.748;19.620;2022-12-18T09:16:17;57.60;;;21.40;;
69005;SDS011;56061;51.748;19.620;2022-12-18T09:18:46;65.90;;;22.10;;
69005;SDS011;56061;51.748;19.620;2022-12-18T09:21:16;72.70;;;26.70;;
69005;SDS011;56061;51.748;19.620;2022-12-18T09:23:49;88.30;;;30.30;;
69005;SDS011;56061;51.748;19.620;2022-12-18T09:26:16;64.30;;;23.10;;
69005;SDS011;56061;51.748;19.620;2022-12-18T09:28:43;83.50;;;30.10;;
69005;SDS011;56061;51.748;19.620;2022-12-18T09:31:11;75.70;;;22.50;;
69005;SDS011;56061;51.748;19.620;2022-12-18T09:33:39;57.30;;;19.60;;
69005;SDS011;56061;51.748;19.620;2022-12-18T09:36:08;73.80;;;24.30;;
69005;SDS011;56061;51.748;19.620;2022-12-18T09:38:36;112.40;;;35.70;;
69005;SDS011;56061;51.748;19.620;2022-12-18T09:41:33;121.50;;;40.40;;
69005;SDS011;56061;51.748;19.620;2022-12-18T09:44:21;75.00;;;24.70;;
69005;SDS011;56061;51.748;19.620;2022-12-18T09:47:23;83.20;;;28.30;;
69005;SDS011;56061;51.748;19.620;2022-12-18T09:50:15;87.40;;;29.60;;
69005;SDS011;56061;51.748;19.620;2022-12-18T09:52:52;78.20;;;23.50;;
69005;SDS011;56061;51.748;19.620;2022-12-18T09:55:25;71.40;;;21.80;;
69005;SDS011;56061;51.748;19.620;2022-12-18T09:58:28;64.20;;;23.40;;
69005;SDS011;56061;51.748;19.620;2022-12-18T10:01:17;60.10;;;23.60;;
69005;SDS011;56061;51.748;19.620;2022-12-18T10:03:48;54.60;;;17.00;;
69005;SDS011;56061;51.748;19.620;2022-12-18T10:09:48;62.80;;;20.10;;
69005;SDS011;56061;51.748;19.620;2022-12-18T10:12:40;69.10;;;26.30;;
69005;SDS011;56061;51.748;19.620;2022-12-18T10:15:24;75.30;;;25.50;;
69005;SDS011;56061;51.748;19.620;2022-12-18T10:18:30;65.40;;;24.00;;
69005;SDS011;56061;51.748;19.620;2022-12-18T10:21:13;71.20;;;24.30;;
69005;SDS011;56061;51.748;19.620;2022-12-18T10:26:31;50.10;;;18.60;;
69005;SDS011;56061;51.748;19.620;2022-12-18T10:28:59;62.20;;;24.10;;
69005;SDS011;56061;51.748;19.620;2022-12-18T10:31:31;70.30;;;24.10;;
69005;SDS011;56061;51.748;19.620;2022-12-18T10:33:57;50.50;;;18.50;;
69005;SDS011;56061;51.748;19.620;2022-12-18T10:36:24;51.10;;;19.00;;
69005;SDS011;56061;51.748;19.620;2022-12-18T10:38:51;56.20;;;20.40;;
69005;SDS011;56061;51.748;19.620;2022-12-18T10:43:47;80.10;;;27.40;;
69005;SDS011;56061;51.748;19.620;2022-12-18T10:46:17;147.20;;;44.80;;
69005;SDS011;56061;51.748;19.620;2022-12-18T10:51:24;159.30;;;39.80;;
69005;SDS011;56061;51.748;19.620;2022-12-18T10:54:03;129.90;;;36.40;;
69005;SDS011;56061;51.748;19.620;2022-12-18T10:56:34;90.00;;;30.20;;
69005;SDS011;56061;51.748;19.620;2022-12-18T10:59:05;92.60;;;26.90;;
69005;SDS011;56061;51.748;19.620;2022-12-18T11:04:24;93.40;;;31.50;;
69005;SDS011;56061;51.748;19.620;2022-12-18T11:07:00;77.80;;;26.10;;
69005;SDS011;56061;51.748;19.620;2022-12-18T11:09:31;81.10;;;31.50;;
69005;SDS011;56061;51.748;19.620;2022-12-18T11:12:04;68.50;;;26.60;;
69005;SDS011;56061;51.748;19.620;2022-12-18T11:14:49;53.40;;;22.30;;
69005;SDS011;56061;51.748;19.620;2022-12-18T11:19:59;59.40;;;23.20;;
69005;SDS011;56061;51.748;19.620;2022-12-18T11:22:33;45.80;;;15.50;;
69005;SDS011;56061;51.748;19.620;2022-12-18T11:25:06;41.00;;;14.80;;
69005;SDS011;56061;51.748;19.620;2022-12-18T11:28:25;40.40;;;13.80;;
69005;SDS011;56061;51.748;19.620;2022-12-18T11:31:24;45.10;;;19.00;;
69005;SDS011;56061;51.748;19.620;2022-12-18T11:34:00;56.80;;;19.90;;
69005;SDS011;56061;51.748;19.620;2022-12-18T11:36:47;73.30;;;21.20;;
69005;SDS011;56061;51.748;19.620;2022-12-18T11:44:58;46.20;;;16.40;;
69005;SDS011;56061;51.748;19.620;2022-12-18T11:47:55;59.20;;;22.00;;
69005;SDS011;56061;51.748;19.620;2022-12-18T11:50:58;49.80;;;16.10;;
69005;SDS011;56061;51.748;19.620;2022-12-18T11:53:29;73.70;;;25.10;;
69005;SDS011;56061;51.748;19.620;2022-12-18T11:56:11;75.60;;;26.00;;
69005;SDS011;56061;51.748;19.620;2022-12-18T11:59:06;74.30;;;29.10;;
69005;SDS011;56061;51.748;19.620;2022-12-18T12:01:50;59.40;;;22.00;;
69005;SDS011;56061;51.748;19.620;2022-12-18T12:16:06;84.30;;;28.60;;
69005;SDS011;56061;51.748;19.620;2022-12-18T12:19:43;73.80;;;26.60;;
69005;SDS011;56061;51.748;19.620;2022-12-18T12:25:52;44.70;;;15.60;;
69005;SDS011;56061;51.748;19.620;2022-12-18T12:28:51;37.40;;;13.50;;
69005;SDS011;56061;51.748;19.620;2022-12-18T12:34:53;39.40;;;15.70;;
69005;SDS011;56061;51.748;19.620;2022-12-18T12:37:43;52.80;;;20.10;;
69005;SDS011;56061;51.748;19.620;2022-12-18T12:40:23;70.50;;;28.50;;
69005;SDS011;56061;51.748;19.620;2022-12-18T12:43:33;78.90;;;28.10;;
69005;SDS011;56061;51.748;19.620;2022-12-18T12:46:16;67.80;;;21.00;;
69005;SDS011;56061;51.748;19.620;2022-12-18T12:48:54;57.40;;;19.40;;
69005;SDS011;56061;51.748;19.620;2022-12-18T12:51:29;53.70;;;19.30;;
69005;SDS011;56061;51.748;19.620;2022-12-18T12:54:02;69.10;;;23.00;;
69005;SDS011;56061;51.748;19.620;2022-12-18T12:59:27;90.70;;;29.20;;
69005;SDS011;56061;51.748;19.620;2022-12-18T13:02:45;83.40;;;27.00;;
69005;SDS011;56061;51.748;19.620;2022-12-18T13:05:40;73.30;;;26.80;;
69005;SDS011;56061;51.748;19.620;2022-12-18T13:08:26;69.00;;;25.20;;
69005;SDS011;56061;51.748;19.620;2022-12-18T13:10:58;59.10;;;20.90;;
69005;SDS011;56061;51.748;19.620;2022-12-18T13:13:50;46.90;;;17.40;;
69005;SDS011;56061;51.748;19.620;2022-12-18T13:16:23;46.20;;;19.10;;
69005;SDS011;56061;51.748;19.620;2022-12-18T13:18:53;54.30;;;20.30;;
69005;SDS011;56061;51.748;19.620;2022-12-18T13:21:30;64.30;;;21.50;;
69005;SDS011;56061;51.748;19.620;2022-12-18T13:24:15;75.50;;;25.80;;
69005;SDS011;56061;51.748;19.620;2022-12-18T13:26:51;83.20;;;28.30;;
69005;SDS011;56061;51.748;19.620;2022-12-18T13:29:41;50.80;;;18.00;;
69005;SDS011;56061;51.748;19.620;2022-12-18T13:32:23;48.50;;;17.80;;
69005;SDS011;56061;51.748;19.620;2022-12-18T13:37:51;73.50;;;26.30;;
69005;SDS011;56061;51.748;19.620;2022-12-18T13:48:27;47.60;;;19.20;;
69005;SDS011;56061;51.748;19.620;2022-12-18T13:51:05;67.40;;;24.60;;
69005;SDS011;56061;51.748;19.620;2022-12-18T13:53:39;43.40;;;15.70;;
69005;SDS011;56061;51.748;19.620;2022-12-18T13:56:16;32.30;;;12.90;;
69005;SDS011;56061;51.748;19.620;2022-12-18T13:58:43;57.00;;;21.00;;
69005;SDS011;56061;51.748;19.620;2022-12-18T14:01:23;61.10;;;19.40;;
69005;SDS011;56061;51.748;19.620;2022-12-18T14:03:50;57.50;;;19.70;;
69005;SDS011;56061;51.748;19.620;2022-12-18T14:06:18;46.80;;;16.60;;
69005;SDS011;56061;51.748;19.620;2022-12-18T14:08:45;38.10;;;13.50;;
69005;SDS011;56061;51.748;19.620;2022-12-18T14:11:22;43.80;;;18.60;;
69005;SDS011;56061;51.748;19.620;2022-12-18T14:13:51;37.80;;;15.60;;
69005;SDS011;56061;51.748;19.620;2022-12-18T14:16:19;32.60;;;11.60;;
69005;SDS011;56061;51.748;19.620;2022-12-18T14:18:52;49.90;;;20.70;;
69005;SDS011;56061;51.748;19.620;2022-12-18T14:21:29;41.50;;;15.30;;
69005;SDS011;56061;51.748;19.620;2022-12-18T14:24:13;26.90;;;9.40;;
69005;SDS011;56061;51.748;19.620;2022-12-18T14:26:46;26.70;;;9.20;;
69005;SDS011;56061;51.748;19.620;2022-12-18T14:29:22;29.70;;;9.70;;
69005;SDS011;56061;51.748;19.620;2022-12-18T14:32:23;28.10;;;9.50;;
69005;SDS011;56061;51.748;19.620;2022-12-18T14:34:52;26.80;;;7.90;;
69005;SDS011;56061;51.748;19.620;2022-12-18T14:37:26;26.40;;;9.40;;
69005;SDS011;56061;51.748;19.620;2022-12-18T14:39:58;33.90;;;10.20;;
69005;SDS011;56061;51.748;19.620;2022-12-18T14:42:36;72.00;;;24.50;;
69005;SDS011;56061;51.748;19.620;2022-12-18T14:45:38;63.20;;;19.00;;
69005;SDS011;56061;51.748;19.620;2022-12-18T14:48:16;70.50;;;21.30;;
69005;SDS011;56061;51.748;19.620;2022-12-18T14:51:06;65.30;;;21.00;;
69005;SDS011;56061;51.748;19.620;2022-12-18T14:53:43;49.80;;;16.70;;
69005;SDS011;56061;51.748;19.620;2022-12-18T14:56:25;59.40;;;20.70;;
69005;SDS011;56061;51.748;19.620;2022-12-18T14:58:56;54.80;;;19.60;;
69005;SDS011;56061;51.748;19.620;2022-12-18T15:01:27;67.40;;;21.10;;
69005;SDS011;56061;51.748;19.620;2022-12-18T15:03:57;62.60;;;24.50;;
69005;SDS011;56061;51.748;19.620;2022-12-18T15:06:28;49.10;;;17.30;;
69005;SDS011;56061;51.748;19.620;2022-12-18T15:09:04;44.40;;;16.60;;
69005;SDS011;56061;51.748;19.620;2022-12-18T15:11:46;54.30;;;20.20;;
69005;SDS011;56061;51.748;19.620;2022-12-18T15:15:02;53.10;;;21.80;;
69005;SDS011;56061;51.748;19.620;2022-12-18T15:17:23;57.20;;;20.90;;
69005;SDS011;56061;51.748;19.620;2022-12-18T15:19:58;45.30;;;14.80;;
69005;SDS011;56061;51.748;19.620;2022-12-18T15:22:34;40.40;;;14.40;;
69005;SDS011;56061;51.748;19.620;2022-12-18T15:25:22;34.20;;;11.90;;
69005;SDS011;56061;51.748;19.620;2022-12-18T15:27:57;41.10;;;12.80;;
69005;SDS011;56061;51.748;19.620;2022-12-18T15:30:25;41.50;;;14.60;;
69005;SDS011;56061;51.748;19.620;2022-12-18T15:33:23;37.50;;;12.20;;
69005;SDS011;56061;51.748;19.620;2022-12-18T15:36:02;27.60;;;9.50;;
69005;SDS011;56061;51.748;19.620;2022-12-18T15:38:31;25.20;;;7.90;;
69005;SDS011;56061;51.748;19.620;2022-12-18T15:40:58;34.10;;;11.40;;
69005;SDS011;56061;51.748;19.620;2022-12-18T15:43:29;48.10;;;14.10;;
69005;SDS011;56061;51.748;19.620;2022-12-18T15:46:05;54.80;;;18.00;;
69005;SDS011;56061;51.748;19.620;2022-12-18T15:48:39;56.70;;;17.10;;
69005;SDS011;56061;51.748;19.620;2022-12-18T15:51:23;57.00;;;16.90;;
69005;SDS011;56061;51.748;19.620;2022-12-18T15:53:56;53.20;;;18.30;;
69005;SDS011;56061;51.748;19.620;2022-12-18T15:56:26;57.80;;;18.90;;